Elkhart, Texas
Current Conditions -  °F | °C
As of 10:35 PM on Wednesday 22 Oct 2014 (Local Time) from KPSN Reporting Station
Clear Clear  
Wind Chill: 66°   Ceiling: Unl
Heat Index: 66°   Visibility: 10mi
Dew Point: 56°   Wind: 5mph
Humidity: 71%   Direction: 60°ENE
Pressure: 30.14"   Gusts: NA
Location:  31.63°N, 95.58°W
Report Text: KPSN 230335Z AUTO 06004KT 10SM CLR 18/13 A3014 RMK AO2 T01890135
Loading
Personal Weather Stations






























Interactive Weather Map
Tropical Storm Tracking
New forecast layout! Learn more

10-Day Weather Forecast

Advertisements
Track Severe Weather on mobile